Time;durP1;ratioP1;P1;durP2;ratioP2;P2;SDS_P1;SDS_P2;PMS_P1;PMS_P2;Temp;Humidity;BMP_temperature;BMP_pressure;BME280_temperature;BME280_humidity;BME280_pressure;Samples;Min_cycle;Max_cycle;Signal;HPM_P1;HPM_P2
2022/09/27 00:00:58;;;;;;;1.20;0.73;;;;;;;10.07;100.00;153946.09;5036706;28;20991;-88
2022/09/27 00:03:25;;;;;;;1.70;0.80;;;;;;;10.09;100.00;153951.25;5029735;28;20456;-88
2022/09/27 00:06:04;;;;;;;1.40;0.90;;;;;;;10.15;100.00;153965.56;5016484;28;20522;-89
2022/09/27 00:08:32;;;;;;;3.10;1.00;;;;;;;10.14;100.00;153963.00;5039474;28;20447;-88
2022/09/27 00:11:00;;;;;;;1.37;1.03;;;;;;;10.15;100.00;153965.56;5025211;28;20540;-88
2022/09/27 00:13:27;;;;;;;1.50;1.30;;;;;;;10.16;100.00;153968.16;5033719;28;20448;-89
2022/09/27 00:15:56;;;;;;;1.73;0.80;;;;;;;10.16;100.00;153969.47;5017188;28;20432;-89
2022/09/27 00:18:23;;;;;;;1.40;0.90;;;;;;;10.16;100.00;153968.16;5034744;28;20825;-89
2022/09/27 00:20:50;;;;;;;1.83;0.80;;;;;;;10.15;100.00;153966.88;5034845;28;20486;-89
2022/09/27 00:23:18;;;;;;;1.60;0.80;;;;;;;10.10;100.00;153952.56;5034804;28;20444;-89
2022/09/27 00:25:55;;;;;;;2.30;0.90;;;;;;;10.15;100.00;153965.56;5016845;28;20467;-89
2022/09/27 00:28:22;;;;;;;2.37;1.20;;;;;;;10.11;100.00;153956.44;5017003;28;20926;-89
2022/09/27 00:30:49;;;;;;;1.70;0.90;;;;;;;10.11;100.00;153955.19;5034866;28;20432;-89
2022/09/27 00:33:16;;;;;;;1.60;1.00;;;;;;;10.07;100.00;153944.81;5007811;28;20447;-89
2022/09/27 00:35:43;;;;;;;1.20;0.90;;;;;;;10.07;100.00;153944.81;5036657;28;20443;-89
2022/09/27 00:38:10;;;;;;;1.93;1.27;;;;;;;10.05;100.00;153940.94;5036628;28;20463;-88
2022/09/27 00:40:39;;;;;;;1.40;0.90;;;;;;;10.07;100.00;153946.09;5036565;28;20446;-88
2022/09/27 00:43:14;;;;;;;1.20;0.70;;;;;;;10.06;100.00;153943.50;5036381;28;20427;-88
2022/09/27 00:45:41;;;;;;;1.50;1.03;;;;;;;10.08;100.00;153948.72;5036718;28;20830;-88
2022/09/27 00:48:08;;;;;;;1.10;0.80;;;;;;;10.09;100.00;153949.97;5054173;28;20783;-88
2022/09/27 00:50:37;;;;;;;1.00;0.63;;;;;;;10.07;100.00;153946.09;5020183;28;20934;-87
2022/09/27 00:53:10;;;;;;;0.93;0.70;;;;;;;10.04;100.00;153937.03;5054036;28;20526;-88
2022/09/27 00:55:40;;;;;;;1.50;0.90;;;;;;;10.05;100.00;153939.63;5019762;28;20432;-88
2022/09/27 00:58:08;;;;;;;2.33;0.90;;;;;;;10.09;100.00;153951.25;5054174;28;20428;-88
2022/09/27 01:00:36;;;;;;;1.03;0.70;;;;;;;10.09;100.00;153949.97;5053659;28;20486;-88
2022/09/27 01:03:06;;;;;;;1.40;0.83;;;;;;;10.13;100.00;153961.69;5036116;28;20435;-88
2022/09/27 01:05:33;;;;;;;1.20;0.80;;;;;;;10.09;100.00;153951.25;5053885;28;20478;-88
2022/09/27 01:08:00;;;;;;;1.00;0.60;;;;;;;10.11;100.00;153955.19;5053838;28;20833;-88
2022/09/27 01:10:29;;;;;;;1.33;0.70;;;;;;;10.09;100.00;153951.25;5036207;28;20533;-88
2022/09/27 01:13:03;;;;;;;1.57;0.80;;;;;;;10.10;100.00;153952.56;5036051;28;20431;-87
2022/09/27 01:15:35;;;;;;;1.67;0.67;;;;;;;9.99;100.00;153925.38;5053978;28;20411;-87
2022/09/27 01:18:17;;;;;;;2.10;0.77;;;;;;;10.03;100.00;153935.78;5036189;28;20434;-87
2022/09/27 01:21:05;;;;;;;1.37;0.93;;;;;;;10.02;100.00;153931.88;5036004;28;20434;-87
2022/09/27 01:23:54;;;;;;;1.10;0.70;;;;;;;9.98;100.00;153921.53;5010820;28;20463;-88
2022/09/27 01:26:33;;;;;;;1.60;0.97;;;;;;;9.98;100.00;153921.53;5054269;28;20497;-87
2022/09/27 01:29:05;;;;;;;1.13;0.70;;;;;;;10.02;100.00;153931.88;5052526;28;20443;-87
2022/09/27 01:31:36;;;;;;;1.50;0.77;;;;;;;10.00;100.00;153926.69;5035862;28;20439;-87
2022/09/27 01:34:07;;;;;;;1.23;0.77;;;;;;;9.97;100.00;153920.22;5043334;28;20840;-87
2022/09/27 01:36:42;;;;;;;1.03;0.63;;;;;;;9.99;100.00;153924.09;5019339;28;20457;-87
2022/09/27 01:39:20;;;;;;;1.10;0.73;;;;;;;9.98;100.00;153921.53;5035774;28;20544;-87
2022/09/27 01:42:14;;;;;;;1.03;0.70;;;;;;;9.97;100.00;153918.91;5030720;28;20443;-87
2022/09/27 01:44:48;;;;;;;1.47;0.70;;;;;;;10.01;100.00;153930.56;5035905;28;20446;-87
2022/09/27 01:47:23;;;;;;;1.17;0.70;;;;;;;10.03;100.00;153934.47;5019542;28;20523;-87
2022/09/27 01:49:56;;;;;;;1.00;0.50;;;;;;;10.01;100.00;153930.56;5037408;28;20447;-85
2022/09/27 01:52:27;;;;;;;1.30;0.80;;;;;;;10.05;100.00;153939.63;5051208;28;20444;-85
2022/09/27 01:54:57;;;;;;;1.10;0.60;;;;;;;10.10;100.00;153952.56;5017997;28;20478;-86
2022/09/27 01:57:48;;;;;;;1.20;0.70;;;;;;;10.10;100.00;153952.56;5031927;28;20424;-86
2022/09/27 02:00:21;;;;;;;1.20;0.90;;;;;;;10.09;100.00;153951.25;5030332;28;20447;-86
2022/09/27 02:02:52;;;;;;;1.93;0.90;;;;;;;10.13;100.00;153960.41;5047276;28;20445;-86
2022/09/27 02:05:44;;;;;;;1.13;0.70;;;;;;;10.14;100.00;153963.00;5054049;28;20485;-87
2022/09/27 02:08:45;;;;;;;1.03;0.80;;;;;;;10.15;100.00;153965.56;5021953;28;20457;-87
2022/09/27 02:11:42;;;;;;;1.30;0.70;;;;;;;10.13;100.00;153961.69;5035597;28;20474;-87
2022/09/27 02:14:16;;;;;;;1.33;0.93;;;;;;;10.14;100.00;153964.25;5026046;28;20965;-87
2022/09/27 02:16:51;;;;;;;2.30;0.70;;;;;;;10.10;100.00;153953.88;5016174;28;20459;-87
2022/09/27 02:19:30;;;;;;;1.00;0.60;;;;;;;10.16;100.00;153968.16;4999173;28;20509;-87
2022/09/27 02:22:01;;;;;;;1.40;0.67;;;;;;;10.19;100.00;153975.94;5014803;28;20444;-87
2022/09/27 02:24:33;;;;;;;2.60;0.60;;;;;;;10.15;100.00;153966.88;4998662;28;20447;-88
2022/09/27 02:27:04;;;;;;;1.83;0.73;;;;;;;10.12;100.00;153959.09;5014912;28;20495;-88
2022/09/27 02:29:35;;;;;;;1.13;0.77;;;;;;;10.15;100.00;153965.56;5014886;28;20452;-87
2022/09/27 02:32:02;;;;;;;1.87;0.70;;;;;;;10.16;100.00;153968.16;5010024;28;20444;-88
2022/09/27 02:34:32;;;;;;;1.40;0.87;;;;;;;10.16;100.00;153968.16;5015746;28;20456;-88
2022/09/27 02:36:59;;;;;;;1.10;0.70;;;;;;;10.17;100.00;153970.72;5014978;28;20439;-87
2022/09/27 02:39:27;;;;;;;0.90;0.60;;;;;;;10.19;100.00;153975.94;4998760;28;20448;-88
2022/09/27 02:42:01;;;;;;;1.10;0.50;;;;;;;10.20;100.00;153978.50;4998794;28;20799;-88
2022/09/27 02:44:28;;;;;;;1.00;0.50;;;;;;;10.20;100.00;153978.50;5015177;28;20852;-88
2022/09/27 02:47:18;;;;;;;0.80;0.43;;;;;;;10.10;100.00;153953.88;4998742;28;20459;-88
2022/09/27 02:49:58;;;;;;;2.10;0.60;;;;;;;10.00;100.00;153928.00;5011713;28;20814;-88
2022/09/27 02:53:07;;;;;;;1.00;0.50;;;;;;;9.98;100.00;153921.53;4952630;29;20471;-87
2022/09/27 02:55:48;;;;;;;1.27;0.53;;;;;;;9.95;100.00;153913.75;4989342;28;20448;-87
2022/09/27 02:58:51;;;;;;;2.77;1.83;;;;;;;9.93;100.00;153909.84;5015737;28;20822;-87
2022/09/27 03:01:33;;;;;;;1.10;0.50;;;;;;;9.92;100.00;153907.28;4998663;28;20432;-87
2022/09/27 03:04:10;;;;;;;1.60;0.70;;;;;;;9.93;100.00;153909.84;4998782;28;20444;-87
2022/09/27 03:06:40;;;;;;;0.80;0.33;;;;;;;9.86;100.00;153890.44;5030849;28;20499;-87
2022/09/27 03:09:14;;;;;;;1.33;0.70;;;;;;;9.82;100.00;153880.13;5072763;28;20438;-87
2022/09/27 03:11:41;;;;;;;0.80;0.40;;;;;;;9.74;100.00;153861.97;5038146;28;20457;-86
2022/09/27 03:14:08;;;;;;;1.40;0.70;;;;;;;9.68;100.00;153845.16;5066479;28;20435;-87
2022/09/27 03:16:37;;;;;;;2.03;0.50;;;;;;;9.69;100.00;153847.72;5017757;28;20435;-87
2022/09/27 03:19:39;;;;;;;1.40;0.50;;;;;;;9.62;100.00;153829.63;5034571;28;20430;-87
2022/09/27 03:22:27;;;;;;;0.93;0.57;;;;;;;9.62;100.00;153830.94;5034337;28;20442;-87
2022/09/27 03:24:54;;;;;;;2.70;0.63;;;;;;;9.65;100.00;153837.41;5020893;28;20497;-87
2022/09/27 03:27:20;;;;;;;0.90;0.47;;;;;;;9.64;100.00;153836.09;5055900;28;20473;-87
2022/09/27 03:29:47;;;;;;;1.30;0.53;;;;;;;9.63;100.00;153832.25;5037981;28;20486;-87
2022/09/27 03:32:14;;;;;;;2.13;0.60;;;;;;;9.59;100.00;153821.88;5055780;28;20465;-87
2022/09/27 03:34:54;;;;;;;1.87;0.63;;;;;;;9.58;100.00;153820.56;5018626;28;20487;-87
2022/09/27 03:37:21;;;;;;;3.37;0.60;;;;;;;9.61;100.00;153827.06;5034565;28;20977;-87
2022/09/27 03:39:49;;;;;;;1.07;0.53;;;;;;;9.52;100.00;153805.06;5035809;28;20502;-87
2022/09/27 03:42:15;;;;;;;1.03;0.57;;;;;;;9.50;100.00;153799.91;5034391;28;20527;-87
2022/09/27 03:44:47;;;;;;;1.10;0.70;;;;;;;9.50;100.00;153799.91;5051501;28;20448;-87
2022/09/27 03:47:13;;;;;;;1.63;0.73;;;;;;;9.52;100.00;153805.06;5024166;28;20468;-87
2022/09/27 03:49:40;;;;;;;3.80;1.00;;;;;;;9.44;100.00;153783.06;5051432;28;20540;-87
2022/09/27 03:52:07;;;;;;;1.10;0.70;;;;;;;9.45;100.00;153786.94;5034606;28;20462;-85
2022/09/27 03:54:34;;;;;;;2.27;1.23;;;;;;;9.44;100.00;153784.38;5020766;28;20542;-84
2022/09/27 03:57:02;;;;;;;1.47;1.10;;;;;;;9.55;100.00;153812.84;5018861;28;20439;-86
2022/09/27 03:59:29;;;;;;;3.43;0.80;;;;;;;9.56;100.00;153814.09;5033616;28;20439;-86
2022/09/27 04:02:15;;;;;;;2.10;1.60;;;;;;;9.55;100.00;153811.53;5051955;28;20499;-86
2022/09/27 04:05:01;;;;;;;2.07;1.00;;;;;;;9.49;100.00;153796.00;5047936;28;20462;-86
2022/09/27 04:07:28;;;;;;;1.83;1.60;;;;;;;9.47;100.00;153792.13;5049943;28;20471;-87
2022/09/27 04:09:55;;;;;;;1.30;1.00;;;;;;;9.46;100.00;153788.22;5048582;28;20450;-87
2022/09/27 04:12:23;;;;;;;1.80;1.20;;;;;;;9.43;100.00;153781.75;5028050;28;20435;-87
2022/09/27 04:14:50;;;;;;;2.37;0.80;;;;;;;9.39;100.00;153770.13;5055984;28;20440;-87
2022/09/27 04:17:35;;;;;;;2.30;1.50;;;;;;;9.40;100.00;153774.00;5039388;28;20504;-87
2022/09/27 04:20:25;;;;;;;2.50;1.57;;;;;;;9.46;100.00;153788.22;5037335;28;20808;-87
2022/09/27 04:22:52;;;;;;;2.07;1.30;;;;;;;9.45;100.00;153786.94;5037123;28;20809;-87
2022/09/27 04:25:20;;;;;;;2.10;1.40;;;;;;;9.47;100.00;153792.13;5037921;28;20490;-87
2022/09/27 04:27:53;;;;;;;2.10;1.30;;;;;;;9.51;100.00;153802.47;5022724;28;20844;-87
2022/09/27 04:30:20;;;;;;;1.77;1.20;;;;;;;9.48;100.00;153794.69;5038922;28;20859;-87
2022/09/27 04:33:19;;;;;;;2.77;1.33;;;;;;;9.50;100.00;153798.59;5038744;28;20431;-87
2022/09/27 04:36:26;;;;;;;2.43;1.50;;;;;;;9.50;100.00;153799.91;4999799;28;20427;-87
2022/09/27 04:39:07;;;;;;;2.60;1.40;;;;;;;9.51;100.00;153801.16;5016992;28;20570;-87
2022/09/27 04:41:37;;;;;;;3.27;1.90;;;;;;;9.51;100.00;153802.47;5017064;28;20570;-87
2022/09/27 04:44:06;;;;;;;3.43;1.70;;;;;;;9.49;100.00;153797.31;5034155;28;20505;-87
2022/09/27 04:46:33;;;;;;;2.50;1.57;;;;;;;9.47;100.00;153790.84;5054766;28;20473;-87
2022/09/27 04:49:00;;;;;;;3.63;1.90;;;;;;;9.46;100.00;153789.53;5019880;28;20478;-87
2022/09/27 04:51:29;;;;;;;2.60;1.93;;;;;;;9.50;100.00;153799.91;5020046;28;20443;-87
2022/09/27 04:53:56;;;;;;;2.60;1.70;;;;;;;9.52;100.00;153803.78;5054909;28;20826;-87
2022/09/27 04:56:27;;;;;;;2.07;1.60;;;;;;;9.53;100.00;153806.38;5036361;28;20442;-87
2022/09/27 04:58:53;;;;;;;5.63;1.87;;;;;;;9.51;100.00;153802.47;5036613;28;20443;-87
2022/09/27 05:01:22;;;;;;;3.17;1.80;;;;;;;9.49;100.00;153796.00;5019702;28;20865;-87
2022/09/27 05:04:26;;;;;;;3.20;1.90;;;;;;;9.52;100.00;153805.06;4979415;28;20656;-87
2022/09/27 05:06:54;;;;;;;4.50;2.10;;;;;;;9.54;100.00;153808.94;5008197;28;20470;-87
2022/09/27 05:09:28;;;;;;;6.23;2.00;;;;;;;9.53;100.00;153807.63;5022328;28;20457;-86
2022/09/27 05:11:56;;;;;;;2.97;1.77;;;;;;;9.54;100.00;153808.94;5020101;28;20784;-86
2022/09/27 05:14:32;;;;;;;2.27;1.40;;;;;;;9.53;100.00;153806.38;5036843;28;20447;-86
2022/09/27 05:17:21;;;;;;;3.00;1.60;;;;;;;9.54;100.00;153808.94;5019775;28;20454;-87
2022/09/27 05:20:08;;;;;;;4.40;1.60;;;;;;;9.53;100.00;153807.63;5034424;28;20462;-86
2022/09/27 05:22:54;;;;;;;5.10;1.80;;;;;;;9.55;100.00;153812.84;5019752;28;20427;-87
2022/09/27 05:25:21;;;;;;;3.13;1.60;;;;;;;9.52;100.00;153805.06;5019856;28;20766;-87
2022/09/27 05:27:49;;;;;;;2.47;1.93;;;;;;;9.50;100.00;153799.91;5019565;28;20549;-87
2022/09/27 05:30:16;;;;;;;3.17;2.10;;;;;;;9.52;100.00;153803.78;5019172;28;20921;-89
2022/09/27 05:32:49;;;;;;;10.10;2.10;;;;;;;9.50;100.00;153798.59;5019424;28;20435;-87
2022/09/27 05:35:36;;;;;;;3.33;1.37;;;;;;;9.51;100.00;153802.47;5035483;28;20860;-87
2022/09/27 05:38:03;;;;;;;2.00;1.50;;;;;;;9.48;100.00;153793.41;5019079;28;21016;-87
2022/09/27 05:40:34;;;;;;;3.10;1.60;;;;;;;9.55;100.00;153812.84;5018951;28;20430;-86
2022/09/27 05:43:01;;;;;;;4.40;1.60;;;;;;;9.53;100.00;153807.63;5018900;28;20550;-87
2022/09/27 05:45:28;;;;;;;3.47;1.50;;;;;;;9.48;100.00;153794.69;5019381;28;20957;-86
2022/09/27 05:48:04;;;;;;;2.70;1.73;;;;;;;9.50;100.00;153798.59;5010483;28;20483;-87
2022/09/27 05:50:32;;;;;;;2.90;1.80;;;;;;;9.51;100.00;153802.47;4999993;28;20536;-87
2022/09/27 05:52:59;;;;;;;1.80;1.43;;;;;;;9.50;100.00;153798.59;5015957;28;20434;-87
2022/09/27 05:55:26;;;;;;;2.60;1.57;;;;;;;9.50;100.00;153798.59;4999468;28;20459;-87
2022/09/27 05:57:57;;;;;;;1.70;1.60;;;;;;;9.51;100.00;153802.47;5019335;28;20455;-87
2022/09/27 06:00:29;;;;;;;3.20;1.60;;;;;;;9.50;100.00;153799.91;4999496;28;20770;-87
2022/09/27 06:02:57;;;;;;;2.30;1.80;;;;;;;9.49;100.00;153796.00;4999567;28;20522;-88
2022/09/27 06:05:44;;;;;;;2.40;1.70;;;;;;;9.48;100.00;153794.69;5016057;28;20444;-87
2022/09/27 06:08:33;;;;;;;8.40;4.33;;;;;;;9.50;100.00;153799.91;5015940;28;20454;-86
2022/09/27 06:11:03;;;;;;;3.70;2.93;;;;;;;9.47;100.00;153792.13;4999376;28;20440;-86
2022/09/27 06:13:32;;;;;;;2.90;1.77;;;;;;;9.44;100.00;153784.38;4999389;28;20467;-86
2022/09/27 06:15:59;;;;;;;4.20;1.70;;;;;;;9.45;100.00;153786.94;4996992;28;20803;-74
2022/09/27 06:18:26;;;;;;;3.70;1.53;;;;;;;9.44;100.00;153784.38;5025393;28;20455;-74
2022/09/27 06:20:54;;;;;;;3.20;1.20;;;;;;;9.46;100.00;153789.53;5033001;28;20459;-74
2022/09/27 06:23:23;;;;;;;1.80;1.30;;;;;;;9.44;100.00;153784.38;5033184;28;20442;-74
2022/09/27 06:25:51;;;;;;;1.60;0.87;;;;;;;9.47;100.00;153792.13;4999736;28;20465;-74
2022/09/27 06:28:35;;;;;;;1.37;1.23;;;;;;;9.45;100.00;153785.69;4997869;28;20471;-73
2022/09/27 06:31:05;;;;;;;1.60;1.00;;;;;;;9.51;100.00;153801.16;4995521;28;20453;-73
2022/09/27 06:33:40;;;;;;;2.10;1.00;;;;;;;9.47;100.00;153792.13;5009577;28;20800;-73
2022/09/27 06:36:08;;;;;;;1.50;0.83;;;;;;;9.47;100.00;153792.13;5013010;28;20435;-73
2022/09/27 06:38:37;;;;;;;1.50;1.10;;;;;;;9.51;100.00;153802.47;5005441;28;20495;-73
2022/09/27 06:41:12;;;;;;;2.63;0.93;;;;;;;9.51;100.00;153802.47;5028021;28;20439;-73
2022/09/27 06:43:57;;;;;;;2.30;1.20;;;;;;;9.58;100.00;153820.56;5019706;28;20454;-75
2022/09/27 06:46:50;;;;;;;1.30;1.03;;;;;;;9.58;100.00;153820.56;5007074;28;20966;-76
2022/09/27 06:49:25;;;;;;;2.17;1.30;;;;;;;9.59;100.00;153823.16;5012194;28;20447;-76
2022/09/27 06:51:54;;;;;;;3.47;0.83;;;;;;;9.63;100.00;153833.53;5027862;28;21163;-75
2022/09/27 06:54:22;;;;;;;1.77;0.90;;;;;;;9.62;100.00;153830.94;5005782;28;20462;-75
2022/09/27 06:56:49;;;;;;;3.43;1.20;;;;;;;9.63;100.00;153833.53;5018478;28;20851;-75
2022/09/27 07:02:19;;;;;;;1.77;0.87;;;;;;;9.68;100.00;153845.16;5038387;28;20448;-73
2022/09/27 07:05:09;;;;;;;1.10;0.60;;;;;;;9.72;100.00;153855.50;5000747;28;20521;-73
2022/09/27 07:07:49;;;;;;;1.87;1.10;;;;;;;9.75;100.00;153864.56;5010368;28;20461;-75
2022/09/27 07:10:17;;;;;;;2.00;1.10;;;;;;;9.80;100.00;153876.22;5037038;28;20984;-75
2022/09/27 07:12:46;;;;;;;2.27;1.67;;;;;;;9.82;100.00;153880.13;5031914;28;20434;-75
2022/09/27 07:15:14;;;;;;;1.80;1.40;;;;;;;9.86;100.00;153890.44;5023089;28;20809;-75
2022/09/27 07:17:41;;;;;;;1.50;0.90;;;;;;;9.91;100.00;153904.69;5018071;28;20956;-75
2022/09/27 07:20:08;;;;;;;1.93;0.90;;;;;;;9.94;100.00;153911.16;5033729;28;20537;-75
2022/09/27 07:22:40;;;;;;;1.33;0.97;;;;;;;9.99;100.00;153925.38;4999435;28;20458;-75
2022/09/27 07:25:08;;;;;;;1.30;0.77;;;;;;;10.00;100.00;153926.69;5007557;28;21009;-75
2022/09/27 07:27:40;;;;;;;0.93;0.60;;;;;;;10.03;100.00;153935.78;5031484;28;20462;-75
2022/09/27 07:30:09;;;;;;;1.60;0.90;;;;;;;10.30;100.00;154005.69;5016363;28;20477;-75
2022/09/27 07:32:36;;;;;;;2.63;1.13;;;;;;;10.72;100.00;154111.88;5021281;28;20509;-75
2022/09/27 07:35:08;;;;;;;1.10;0.70;;;;;;;10.78;100.00;154127.38;5019768;28;20446;-75
2022/09/27 07:37:36;;;;;;;1.17;0.77;;;;;;;10.79;100.00;154131.28;5030849;28;20478;-75
2022/09/27 07:40:09;;;;;;;0.87;0.50;;;;;;;10.68;100.00;154102.78;5030872;28;20467;-75
2022/09/27 07:42:37;;;;;;;0.93;0.47;;;;;;;10.64;100.00;154091.16;5002029;28;20439;-75
2022/09/27 07:45:06;;;;;;;1.93;0.63;;;;;;;10.57;100.00;154073.00;5034882;28;20983;-75
2022/09/27 07:48:04;;;;;;;0.90;0.57;;;;;;;10.42;100.00;154034.16;5034585;28;20764;-75
2022/09/27 07:50:50;;;;;;;2.20;0.93;;;;;;;10.52;100.00;154060.06;5019840;28;20442;-75
2022/09/27 07:53:39;;;;;;;2.07;1.23;;;;;;;10.44;100.00;154040.63;4997499;28;20513;-75
2022/09/27 07:56:26;;;;;;;2.40;1.23;;;;;;;10.48;100.00;154051.03;5038623;28;20822;-75
2022/09/27 07:58:53;;;;;;;1.43;0.80;;;;;;;10.56;100.00;154070.44;5010343;28;20486;-75
2022/09/27 08:01:19;;;;;;;1.20;0.60;;;;;;;10.56;100.00;154071.75;4998143;28;20474;-75
2022/09/27 08:03:47;;;;;;;1.80;0.73;;;;;;;10.62;100.00;154087.25;5006271;28;20547;-75
2022/09/27 08:06:16;;;;;;;1.30;0.60;;;;;;;10.69;100.00;154104.09;5030558;28;20974;-75
2022/09/27 08:08:43;;;;;;;3.00;1.20;;;;;;;10.76;100.00;154122.22;4999030;28;20529;-75
2022/09/27 08:11:13;;;;;;;1.23;0.80;;;;;;;10.81;100.00;154136.47;5014127;28;20464;-75
2022/09/27 08:13:41;;;;;;;2.37;0.53;;;;;;;10.94;100.00;154168.81;5038925;28;20546;-75
2022/09/27 08:16:09;;;;;;;1.20;0.73;;;;;;;11.21;100.00;154238.78;5006914;28;20534;-75
2022/09/27 08:18:56;;;;;;;1.40;0.50;;;;;;;11.29;100.00;154258.22;5019997;28;20455;-75
2022/09/27 08:21:42;;;;;;;2.37;0.67;;;;;;;11.26;100.00;154250.44;5017581;28;20464;-75
2022/09/27 08:24:18;;;;;;;1.50;0.63;;;;;;;11.43;100.00;154294.50;5029284;28;20494;-75
2022/09/27 08:27:12;;;;;;;1.23;0.73;;;;;;;11.58;100.00;154333.38;5008288;28;20479;-75
2022/09/27 08:29:53;;;;;;;1.30;0.70;;;;;;;11.76;100.00;154378.75;5011770;28;20617;-75
2022/09/27 08:32:19;;;;;;;8.33;1.20;;;;;;;11.81;100.00;154391.75;5025682;28;20989;-75
2022/09/27 08:34:46;;;;;;;2.10;0.70;;;;;;;11.85;100.00;154403.41;5029721;28;20450;-75
2022/09/27 08:37:13;;;;;;;4.10;0.57;;;;;;;11.82;99.96;154395.63;5031286;28;20471;-75
2022/09/27 08:39:40;;;;;;;1.00;0.60;;;;;;;11.82;98.35;154395.63;5041504;28;20487;-75
2022/09/27 08:42:21;;;;;;;1.87;0.67;;;;;;;11.69;99.17;154360.63;5018721;28;20459;-75
2022/09/27 08:44:55;;;;;;;1.00;0.50;;;;;;;11.56;96.32;154328.19;5028077;28;20459;-75
2022/09/27 08:47:25;;;;;;;1.30;0.70;;;;;;;11.49;99.35;154311.31;5031952;28;20816;-75
2022/09/27 08:49:58;;;;;;;0.90;0.50;;;;;;;11.47;99.52;154304.84;4997403;28;20460;-75
2022/09/27 08:52:27;;;;;;;1.07;0.60;;;;;;;11.29;97.75;154259.53;5010881;28;20448;-75
2022/09/27 08:54:56;;;;;;;1.97;1.00;;;;;;;11.34;99.40;154271.16;5000417;28;20467;-75
2022/09/27 08:57:24;;;;;;;0.93;0.57;;;;;;;11.32;99.68;154266.00;5028878;28;20458;-76
2022/09/27 08:59:58;;;;;;;1.13;0.60;;;;;;;11.25;99.47;154247.88;5013623;28;20981;-75
2022/09/27 09:02:26;;;;;;;1.03;0.70;;;;;;;11.28;100.00;154255.66;5002862;28;20477;-75
2022/09/27 09:04:55;;;;;;;1.40;0.50;;;;;;;11.25;98.92;154247.88;5018886;28;20467;-75
2022/09/27 09:07:42;;;;;;;1.37;0.70;;;;;;;11.31;97.75;154263.38;5017443;28;20478;-75
2022/09/27 09:13:07;;;;;;;1.30;0.80;;;;;;;11.40;98.47;154288.03;5018176;28;20527;-76
2022/09/27 09:15:57;;;;;;;1.77;0.90;;;;;;;11.65;98.64;154351.50;5031023;28;20459;-76
2022/09/27 09:18:58;;;;;;;1.10;0.67;;;;;;;11.81;97.50;154393.00;5022286;28;20456;-76
2022/09/27 09:21:51;;;;;;;1.30;0.80;;;;;;;11.84;97.15;154399.50;5013102;28;20458;-75
2022/09/27 09:24:26;;;;;;;1.00;0.70;;;;;;;11.83;96.06;154398.22;5018857;28;20447;-75
2022/09/27 09:27:00;;;;;;;1.10;0.70;;;;;;;11.89;93.59;154413.75;5032157;28;20453;-75
2022/09/27 09:29:52;;;;;;;1.53;0.93;;;;;;;12.01;97.54;154444.91;5008177;28;20463;-76
2022/09/27 09:32:29;;;;;;;1.20;0.80;;;;;;;12.14;95.46;154478.59;5018852;28;20452;-75
2022/09/27 09:34:59;;;;;;;1.90;0.73;;;;;;;12.27;93.66;154509.69;5023491;28;20557;-75
2022/09/27 09:37:35;;;;;;;1.00;0.60;;;;;;;12.28;91.96;154512.31;5014093;28;20561;-75
2022/09/27 09:40:06;;;;;;;1.20;0.53;;;;;;;12.35;93.73;154530.44;5001001;28;20451;-75
2022/09/27 09:42:35;;;;;;;1.10;0.67;;;;;;;12.30;90.60;154517.47;5030455;28;20451;-75
2022/09/27 09:45:04;;;;;;;1.20;0.80;;;;;;;12.44;92.18;154553.78;5000960;28;20855;-75
2022/09/27 09:47:36;;;;;;;1.53;0.77;;;;;;;12.54;89.43;154579.72;5030372;28;20969;-75
2022/09/27 09:50:06;;;;;;;1.30;0.77;;;;;;;12.48;90.22;154564.16;5002261;28;20579;-75
2022/09/27 09:52:40;;;;;;;1.87;1.03;;;;;;;12.45;88.51;154556.34;5012222;28;20490;-75
2022/09/27 09:55:16;;;;;;;1.47;1.00;;;;;;;12.49;91.30;154566.75;5013163;28;20487;-75
2022/09/27 09:57:56;;;;;;;1.50;1.33;;;;;;;12.56;88.91;154586.19;4999748;28;20444;-75
2022/09/27 10:00:26;;;;;;;2.23;1.30;;;;;;;12.71;85.24;154623.78;5008243;28;20474;-75
2022/09/27 10:02:58;;;;;;;2.50;1.33;;;;;;;12.68;85.36;154616.03;5014961;28;20833;-75
2022/09/27 10:05:26;;;;;;;2.30;1.30;;;;;;;12.79;84.28;154645.84;4995532;28;20538;-75
2022/09/27 10:08:00;;;;;;;2.83;1.50;;;;;;;12.81;87.27;154649.75;4999259;28;20967;-76
2022/09/27 10:10:27;;;;;;;1.87;1.37;;;;;;;12.78;84.88;154641.97;5045506;28;20465;-75
2022/09/27 10:12:54;;;;;;;1.40;0.90;;;;;;;12.76;91.33;154638.06;5046227;28;20434;-75
2022/09/27 10:15:29;;;;;;;4.03;1.50;;;;;;;12.82;86.61;154653.63;5015738;28;20447;-75
2022/09/27 10:17:58;;;;;;;4.80;1.40;;;;;;;12.87;85.91;154665.28;5025117;28;20456;-73
2022/09/27 10:20:31;;;;;;;1.53;1.07;;;;;;;13.02;82.06;154704.25;5026028;28;20450;-73
2022/09/27 10:23:04;;;;;;;2.20;1.60;;;;;;;13.10;81.94;154725.06;5030952;28;20431;-74
2022/09/27 10:25:53;;;;;;;2.27;1.20;;;;;;;13.14;84.46;154735.41;5007448;28;20458;-75
2022/09/27 10:28:51;;;;;;;2.90;1.40;;;;;;;13.11;83.58;154726.31;5009552;28;20471;-75
2022/09/27 10:31:23;;;;;;;3.40;1.60;;;;;;;12.98;81.23;154693.84;5000045;28;20467;-75
2022/09/27 10:34:21;;;;;;;2.63;1.40;;;;;;;12.85;81.12;154660.13;5041333;28;20467;-76
2022/09/27 10:37:05;;;;;;;1.40;1.20;;;;;;;12.72;80.28;154626.41;5019946;28;20813;-76
2022/09/27 10:39:32;;;;;;;1.20;1.00;;;;;;;12.59;84.15;154592.69;5010801;28;20969;-75
2022/09/27 10:42:00;;;;;;;1.60;1.10;;;;;;;12.54;82.80;154579.72;5017239;28;20455;-76
2022/09/27 10:44:39;;;;;;;2.10;1.37;;;;;;;12.61;83.86;154597.84;5032897;28;20459;-75
2022/09/27 10:47:21;;;;;;;1.63;1.20;;;;;;;12.62;80.70;154600.47;5018869;28;20850;-76
2022/09/27 10:50:19;;;;;;;2.83;1.23;;;;;;;12.67;81.72;154613.44;5008846;28;20482;-75
2022/09/27 10:53:04;;;;;;;1.67;1.30;;;;;;;12.72;84.76;154627.72;5019007;28;20466;-76
2022/09/27 10:55:33;;;;;;;3.17;1.47;;;;;;;12.76;81.20;154636.81;5029119;28;20527;-75
2022/09/27 10:58:01;;;;;;;1.73;1.50;;;;;;;12.78;83.41;154641.97;5005304;28;20482;-75
2022/09/27 11:00:31;;;;;;;2.20;1.50;;;;;;;12.81;80.96;154649.75;5032606;28;20504;-75
2022/09/27 11:03:00;;;;;;;2.40;1.20;;;;;;;12.79;82.07;154644.53;5015252;28;20499;-75
2022/09/27 11:05:35;;;;;;;2.27;1.30;;;;;;;12.81;81.03;154649.75;5035696;28;20447;-75
2022/09/27 11:08:19;;;;;;;4.53;1.43;;;;;;;12.83;82.33;154654.94;5025394;28;20476;-75
2022/09/27 11:11:18;;;;;;;2.07;1.10;;;;;;;12.88;83.78;154667.91;5018009;28;20485;-75
2022/09/27 11:13:58;;;;;;;4.80;2.00;;;;;;;12.82;87.04;154653.63;5028701;28;20462;-75
2022/09/27 11:16:36;;;;;;;4.33;1.50;;;;;;;12.81;84.37;154651.03;5026825;28;20530;-75
2022/09/27 11:19:10;;;;;;;1.30;1.17;;;;;;;12.81;82.88;154649.75;5036415;28;20483;-74
2022/09/27 11:21:45;;;;;;;1.90;1.10;;;;;;;12.88;83.27;154667.91;5027904;28;20450;-75
2022/09/27 11:24:37;;;;;;;4.73;1.93;;;;;;;12.96;83.77;154688.66;5020861;28;20557;-75
2022/09/27 11:27:12;;;;;;;1.73;1.20;;;;;;;12.97;84.00;154689.97;5023371;28;20491;-75
2022/09/27 11:29:49;;;;;;;1.60;1.10;;;;;;;12.96;80.43;154687.34;5014726;28;20479;-75
2022/09/27 11:33:04;;;;;;;2.27;0.87;;;;;;;12.95;80.55;154686.06;4993870;28;20506;-75
2022/09/27 11:35:45;;;;;;;1.00;0.67;;;;;;;12.83;80.53;154654.94;5036292;28;20447;-75
2022/09/27 11:38:22;;;;;;;1.20;1.00;;;;;;;12.85;77.56;154660.13;5004388;28;20578;-75
2022/09/27 11:41:21;;;;;;;1.10;0.90;;;;;;;12.83;80.63;154654.94;5032975;28;20535;-75
2022/09/27 11:44:11;;;;;;;1.93;0.70;;;;;;;12.88;82.56;154667.91;5022582;28;20459;-75
2022/09/27 11:46:40;;;;;;;1.17;0.70;;;;;;;12.86;83.09;154661.44;5019070;28;20459;-75
2022/09/27 11:49:46;;;;;;;1.20;0.63;;;;;;;12.84;79.63;154658.81;5016121;28;20578;-75
2022/09/27 11:52:27;;;;;;;1.90;0.83;;;;;;;12.90;81.60;154673.09;5000436;28;20459;-75
2022/09/27 11:55:04;;;;;;;1.57;1.20;;;;;;;12.88;82.02;154667.91;5030179;28;20509;-75
2022/09/27 11:57:36;;;;;;;1.97;1.00;;;;;;;12.86;81.06;154662.72;5013182;28;20809;-75
2022/09/27 12:00:12;;;;;;;2.13;1.00;;;;;;;12.96;82.56;154688.66;5018888;28;20456;-75
2022/09/27 12:02:59;;;;;;;1.40;0.97;;;;;;;13.02;83.24;154704.25;5038088;28;20447;-75